createdAt,value
2018-04-15T00:01:36.970Z,12.90
2018-04-15T00:04:03.151Z,12.90
2018-04-15T00:06:29.242Z,12.80
2018-04-15T00:08:55.347Z,12.80
2018-04-15T00:11:21.486Z,12.80
2018-04-15T00:13:47.606Z,12.70
2018-04-15T00:16:13.804Z,12.80
2018-04-15T00:18:40.659Z,12.80
2018-04-15T00:21:06.807Z,12.80
2018-04-15T00:23:32.919Z,12.80
2018-04-15T00:25:59.048Z,12.80
2018-04-15T00:28:25.176Z,12.80
2018-04-15T00:30:51.327Z,12.80
2018-04-15T00:33:17.431Z,12.90
2018-04-15T00:35:43.578Z,13.00
2018-04-15T00:38:09.699Z,13.00
2018-04-15T00:40:35.864Z,13.00
2018-04-15T00:43:02.737Z,13.10
2018-04-15T00:45:28.904Z,13.10
2018-04-15T00:47:55.039Z,13.10
2018-04-15T00:50:21.161Z,13.20
2018-04-15T00:52:47.291Z,13.20
2018-04-15T00:55:13.408Z,13.20
2018-04-15T00:57:39.542Z,13.20
2018-04-15T01:00:05.730Z,13.20
2018-04-15T01:02:31.855Z,13.20
2018-04-15T01:04:57.970Z,13.20
2018-04-15T01:07:24.123Z,13.20
2018-04-15T01:09:50.227Z,13.20
2018-04-15T01:12:16.429Z,13.20
2018-04-15T01:14:42.542Z,13.30
2018-04-15T01:17:09.410Z,13.20
2018-04-15T01:19:35.552Z,13.20
2018-04-15T01:22:01.782Z,13.20
2018-04-15T01:24:27.923Z,13.20
2018-04-15T01:26:54.042Z,13.20
2018-04-15T01:29:20.207Z,13.20
2018-04-15T01:31:46.498Z,13.20
2018-04-15T01:34:12.618Z,13.30
2018-04-15T01:36:38.735Z,13.30
2018-04-15T01:39:04.922Z,13.30
2018-04-15T01:41:31.056Z,13.30
2018-04-15T01:43:57.203Z,13.30
2018-04-15T01:46:23.329Z,13.30
2018-04-15T01:48:49.446Z,13.30
2018-04-15T01:51:15.563Z,13.30
2018-04-15T01:53:41.790Z,13.30
2018-04-15T01:56:07.903Z,13.30
2018-04-15T01:58:34.055Z,13.20
2018-04-15T02:01:00.188Z,13.30
2018-04-15T02:03:26.330Z,13.30
2018-04-15T02:05:52.456Z,13.20
2018-04-15T02:08:18.585Z,13.30
2018-04-15T02:10:44.699Z,13.20
2018-04-15T02:13:10.870Z,13.20
2018-04-15T02:15:37.735Z,13.20
2018-04-15T02:18:03.891Z,13.20
2018-04-15T02:20:30.060Z,13.20
2018-04-15T02:22:56.154Z,13.20
2018-04-15T02:25:22.319Z,13.20
2018-04-15T02:27:48.450Z,13.10
2018-04-15T02:30:14.584Z,13.20
2018-04-15T02:32:40.697Z,13.20
2018-04-15T02:35:06.840Z,13.20
2018-04-15T02:37:32.930Z,13.00
2018-04-15T02:39:59.803Z,13.00
2018-04-15T02:42:25.927Z,13.00
2018-04-15T02:44:52.161Z,13.00
2018-04-15T02:47:18.264Z,13.10
2018-04-15T02:49:44.394Z,13.10
2018-04-15T02:52:10.503Z,13.10
2018-04-15T02:54:37.371Z,13.10
2018-04-15T02:57:03.540Z,13.10
2018-04-15T02:59:29.670Z,13.20
2018-04-15T03:01:55.858Z,13.20
2018-04-15T03:04:22.744Z,13.30
2018-04-15T03:06:48.887Z,13.20
2018-04-15T03:09:15.770Z,13.30
2018-04-15T03:11:41.891Z,13.30
2018-04-15T03:14:08.016Z,13.30
2018-04-15T03:16:34.170Z,13.40
2018-04-15T03:19:00.271Z,13.30
2018-04-15T03:21:26.427Z,13.30
2018-04-15T03:23:52.527Z,13.30
2018-04-15T03:26:18.651Z,13.30
2018-04-15T03:28:44.873Z,13.30
2018-04-15T03:31:11.009Z,13.30
2018-04-15T03:33:37.099Z,13.30
2018-04-15T03:36:03.230Z,13.30
2018-04-15T03:38:29.351Z,13.20
2018-04-15T03:40:55.480Z,13.20
2018-04-15T03:43:22.391Z,13.20
2018-04-15T03:45:49.255Z,13.20
2018-04-15T03:48:15.483Z,13.10
2018-04-15T03:50:41.582Z,13.20
2018-04-15T03:53:07.703Z,13.20
2018-04-15T03:55:34.538Z,13.20
2018-04-15T03:58:00.672Z,13.20
2018-04-15T04:00:26.816Z,13.20
2018-04-15T04:02:52.931Z,13.20
2018-04-15T04:05:19.787Z,13.20
2018-04-15T04:07:46.039Z,13.20
2018-04-15T04:10:12.212Z,13.20
2018-04-15T04:12:38.331Z,13.10
2018-04-15T04:15:04.430Z,13.00
2018-04-15T04:17:42.730Z,13.00
2018-04-15T04:20:21.093Z,13.00
2018-04-15T04:22:59.375Z,13.00
2018-04-15T04:25:35.641Z,13.00
2018-04-15T04:28:01.799Z,12.90
2018-04-15T04:30:28.637Z,13.00
2018-04-15T04:32:54.758Z,13.00
2018-04-15T04:35:20.870Z,13.00
2018-04-15T04:37:47.004Z,13.00
2018-04-15T04:40:13.118Z,13.00
2018-04-15T04:42:39.239Z,13.00
2018-04-15T04:45:05.432Z,12.90
2018-04-15T04:47:31.559Z,13.00
2018-04-15T04:49:57.707Z,13.00
2018-04-15T04:52:23.794Z,13.00
2018-04-15T04:54:49.926Z,13.00
2018-04-15T04:57:16.029Z,13.00
2018-04-15T04:59:42.235Z,13.10
2018-04-15T05:02:09.119Z,13.10
2018-04-15T05:04:35.254Z,13.10
2018-04-15T05:07:01.383Z,13.10
2018-04-15T05:09:27.480Z,13.10
2018-04-15T05:11:53.658Z,13.10
2018-04-15T05:14:19.899Z,13.10
2018-04-15T05:16:46.762Z,13.20
2018-04-15T05:19:12.891Z,13.10
2018-04-15T05:21:39.036Z,13.20
2018-04-15T05:24:05.143Z,13.20
2018-04-15T05:26:31.284Z,13.20
2018-04-15T05:28:57.403Z,13.20
2018-04-15T05:31:23.625Z,13.30
2018-04-15T05:33:49.798Z,13.20
2018-04-15T05:36:16.006Z,13.30
2018-04-15T05:38:42.116Z,13.30
2018-04-15T05:41:08.229Z,13.30
2018-04-15T05:43:34.353Z,13.30
2018-04-15T05:46:00.455Z,13.40
2018-04-15T05:48:26.575Z,13.40
2018-04-15T05:50:53.414Z,13.40
2018-04-15T05:53:19.567Z,13.40
2018-04-15T05:55:45.670Z,13.50
2018-04-15T05:58:11.792Z,13.50
2018-04-15T06:00:37.930Z,13.50
2018-04-15T06:03:04.053Z,13.50
2018-04-15T06:05:30.163Z,13.50
2018-04-15T06:07:56.416Z,13.60
2018-04-15T06:10:22.576Z,13.50
2018-04-15T06:12:48.744Z,13.50
2018-04-15T06:15:15.600Z,13.50
2018-04-15T06:17:41.841Z,13.50
2018-04-15T06:20:07.952Z,13.50
2018-04-15T06:22:34.056Z,13.50
2018-04-15T06:25:00.179Z,13.60
2018-04-15T06:27:27.044Z,13.60
2018-04-15T06:29:53.179Z,13.60
2018-04-15T06:32:19.303Z,13.60
2018-04-15T06:34:45.440Z,13.70
2018-04-15T06:37:11.550Z,13.70
2018-04-15T06:39:37.683Z,13.70
2018-04-15T06:42:03.843Z,13.80
2018-04-15T06:44:30.391Z,13.80
2018-04-15T06:47:00.505Z,13.80
2018-04-15T06:49:38.946Z,13.90
2018-04-15T06:52:05.469Z,13.80
2018-04-15T06:54:31.692Z,13.90
2018-04-15T06:57:03.315Z,13.90
2018-04-15T06:59:29.501Z,13.90
2018-04-15T07:01:55.646Z,13.90
2018-04-15T07:04:22.553Z,14.00
2018-04-15T07:06:49.439Z,14.10
2018-04-15T07:09:15.647Z,14.10
2018-04-15T07:11:42.051Z,14.10
2018-04-15T07:14:08.310Z,14.20
2018-04-15T07:16:34.519Z,14.20
2018-04-15T07:19:01.566Z,14.30
2018-04-15T07:21:27.935Z,14.30
2018-04-15T07:23:58.417Z,14.30
2018-04-15T07:26:24.869Z,14.30
2018-04-15T07:28:51.160Z,14.40
2018-04-15T07:31:18.099Z,14.40
2018-04-15T07:33:51.942Z,14.40
2018-04-15T07:36:18.244Z,14.40
2018-04-15T07:38:45.086Z,14.40
2018-04-15T07:41:18.103Z,14.50
2018-04-15T07:43:44.285Z,14.50
2018-04-15T07:46:12.194Z,14.60
2018-04-15T07:48:39.086Z,14.60
2018-04-15T07:51:06.103Z,14.60
2018-04-15T07:53:33.286Z,14.60
2018-04-15T07:55:59.510Z,14.50
2018-04-15T07:58:25.724Z,14.60
2018-04-15T08:00:51.995Z,14.60
2018-04-15T08:03:19.979Z,14.70
2018-04-15T08:05:46.559Z,14.90
2018-04-15T08:08:12.731Z,14.90
2018-04-15T08:10:40.074Z,14.90
2018-04-15T08:13:06.340Z,14.90
2018-04-15T08:15:36.972Z,14.90
2018-04-15T08:18:03.168Z,14.80
2018-04-15T08:20:29.330Z,14.80
2018-04-15T08:23:00.928Z,14.70
2018-04-15T08:25:27.739Z,14.80
2018-04-15T08:27:54.746Z,14.80
2018-04-15T08:30:20.885Z,14.80
2018-04-15T08:32:47.093Z,14.90
2018-04-15T08:35:17.314Z,14.80
2018-04-15T08:37:43.510Z,14.80
2018-04-15T08:40:09.673Z,14.90
2018-04-15T08:42:39.975Z,14.80
2018-04-15T08:45:07.230Z,14.90
2018-04-15T08:47:33.426Z,14.90
2018-04-15T08:50:02.249Z,14.90
2018-04-15T08:52:28.673Z,14.90
2018-04-15T08:54:55.339Z,15.00
2018-04-15T08:57:21.618Z,15.00
2018-04-15T08:59:48.579Z,15.10
2018-04-15T09:02:15.530Z,15.20
2018-04-15T09:04:42.527Z,15.20
2018-04-15T09:07:08.735Z,15.30
2018-04-15T09:09:35.604Z,15.30
2018-04-15T09:12:02.704Z,15.30
2018-04-15T09:14:28.875Z,15.30
2018-04-15T09:16:55.093Z,15.40
2018-04-15T09:19:21.294Z,15.50
2018-04-15T09:21:51.755Z,15.60
2018-04-15T09:24:19.260Z,15.70
2018-04-15T09:26:45.467Z,15.70
2018-04-15T09:29:26.635Z,16.00
2018-04-15T09:31:58.149Z,16.10
2018-04-15T09:34:24.335Z,16.00
2018-04-15T09:36:55.022Z,16.10
2018-04-15T09:39:21.155Z,16.10
2018-04-15T09:41:55.921Z,16.20
2018-04-15T09:44:22.905Z,16.20
2018-04-15T09:46:49.136Z,16.30
2018-04-15T09:49:19.588Z,16.40
2018-04-15T09:51:46.985Z,16.40
2018-04-15T09:54:18.625Z,16.50
2018-04-15T09:56:54.159Z,16.50
2018-04-15T09:59:21.050Z,16.50
2018-04-15T10:01:51.612Z,16.60
2018-04-15T10:04:18.251Z,16.80
2018-04-15T10:06:45.413Z,16.80
2018-04-15T10:09:13.622Z,16.90
2018-04-15T10:11:39.765Z,17.00
2018-04-15T10:14:06.752Z,17.00
2018-04-15T10:16:33.747Z,17.40
2018-04-15T10:19:00.013Z,17.20
2018-04-15T10:21:26.357Z,17.50
2018-04-15T10:23:52.683Z,17.50
2018-04-15T10:26:22.826Z,17.50
2018-04-15T10:28:49.251Z,17.50
2018-04-15T10:31:19.864Z,17.50
2018-04-15T10:33:46.833Z,17.60
2018-04-15T10:36:13.018Z,17.60
2018-04-15T10:38:39.484Z,17.70
2018-04-15T10:41:05.679Z,17.80
2018-04-15T10:43:31.817Z,17.70
2018-04-15T10:45:59.700Z,17.80
2018-04-15T10:48:26.445Z,17.80
2018-04-15T10:50:53.179Z,17.80
2018-04-15T10:53:20.170Z,17.80
2018-04-15T10:55:46.428Z,18.00
2018-04-15T10:58:17.651Z,18.00
2018-04-15T11:00:47.792Z,18.20
2018-04-15T11:03:13.934Z,18.20
2018-04-15T11:05:45.776Z,18.20
2018-04-15T11:08:15.890Z,18.10
2018-04-15T11:10:42.054Z,18.10
2018-04-15T11:13:09.134Z,18.20
2018-04-15T11:15:36.628Z,18.20
2018-04-15T11:18:03.550Z,18.30
2018-04-15T11:20:30.769Z,18.30
2018-04-15T11:22:57.761Z,18.40
2018-04-15T11:25:23.987Z,18.40
2018-04-15T11:27:50.212Z,18.50
2018-04-15T11:30:17.059Z,18.60
2018-04-15T11:32:43.306Z,18.60
2018-04-15T11:35:25.058Z,18.60
2018-04-15T11:37:51.211Z,18.60
2018-04-15T11:40:18.107Z,18.60
2018-04-15T11:42:44.310Z,18.60
2018-04-15T11:45:11.343Z,18.60
2018-04-15T11:47:37.515Z,18.70
2018-04-15T11:50:03.752Z,18.80
2018-04-15T11:52:33.019Z,18.80
2018-04-15T11:54:59.952Z,18.90
2018-04-15T11:57:26.122Z,19.00
2018-04-15T11:59:52.415Z,19.10
2018-04-15T12:02:18.640Z,19.10
2018-04-15T12:04:48.952Z,19.10
2018-04-15T12:07:19.978Z,19.10
2018-04-15T12:09:46.154Z,19.20
2018-04-15T12:12:14.582Z,19.30
2018-04-15T12:14:40.759Z,19.40
2018-04-15T12:17:07.538Z,19.40
2018-04-15T12:19:33.726Z,19.30
2018-04-15T12:22:01.519Z,19.20
2018-04-15T12:24:28.479Z,19.20
2018-04-15T12:26:54.645Z,19.20
2018-04-15T12:29:25.303Z,19.20
2018-04-15T12:34:26.923Z,19.30
2018-04-15T12:36:54.037Z,19.40
2018-04-15T12:39:20.312Z,19.40
2018-04-15T12:41:50.967Z,19.30
2018-04-15T12:44:18.534Z,19.50
2018-04-15T12:46:44.934Z,19.60
2018-04-15T12:49:11.118Z,19.60
2018-04-15T12:51:37.368Z,19.50
2018-04-15T12:54:04.097Z,19.50
2018-04-15T12:56:30.313Z,19.50
2018-04-15T12:58:57.372Z,19.80
2018-04-15T13:01:23.575Z,19.70
2018-04-15T13:03:54.823Z,19.80
2018-04-15T13:06:21.126Z,19.80
2018-04-15T13:08:47.276Z,19.80
2018-04-15T13:11:13.546Z,19.80
2018-04-15T13:13:39.732Z,19.80
2018-04-15T13:16:05.948Z,19.80
2018-04-15T13:18:32.212Z,19.90
2018-04-15T13:20:58.423Z,20.00
2018-04-15T13:23:24.656Z,20.00
2018-04-15T13:25:52.043Z,20.20
2018-04-15T13:28:22.695Z,20.10
2018-04-15T13:30:49.824Z,20.20
2018-04-15T13:33:16.042Z,20.20
2018-04-15T13:35:42.270Z,20.30
2018-04-15T13:38:08.503Z,20.70
2018-04-15T13:40:34.677Z,21.20
2018-04-15T13:43:00.942Z,21.30
2018-04-15T13:45:27.114Z,21.30
2018-04-15T13:47:56.324Z,21.10
2018-04-15T13:50:22.557Z,21.10
2018-04-15T13:52:51.564Z,20.90
2018-04-15T13:55:18.576Z,20.90
2018-04-15T13:57:49.065Z,20.90
2018-04-15T14:00:16.718Z,20.90
2018-04-15T14:02:50.320Z,20.90
2018-04-15T14:05:19.434Z,20.80
2018-04-15T14:07:46.458Z,20.60
2018-04-15T14:10:13.838Z,20.90
2018-04-15T14:13:06.873Z,20.80
2018-04-15T14:32:23.904Z,21.00
2018-04-15T14:34:50.202Z,21.00
2018-04-15T14:37:23.531Z,21.10
2018-04-15T14:39:50.214Z,21.10
2018-04-15T14:42:17.134Z,21.10
2018-04-15T14:44:44.783Z,21.10
2018-04-15T14:47:12.388Z,21.10
2018-04-15T14:49:39.109Z,21.10
2018-04-15T14:52:05.938Z,21.00
2018-04-15T14:54:32.239Z,21.00
2018-04-15T14:56:58.384Z,21.00
2018-04-15T14:59:25.132Z,20.90
2018-04-15T15:01:56.999Z,20.90
2018-04-15T15:04:24.876Z,21.00
2018-04-15T15:06:52.933Z,21.00
2018-04-15T15:09:19.194Z,21.10
2018-04-15T15:11:46.263Z,21.00
2018-04-15T15:14:12.749Z,21.10
2018-04-15T15:16:39.306Z,21.30
2018-04-15T15:19:10.288Z,20.80
2018-04-15T15:21:37.043Z,21.10
2018-04-15T15:24:03.954Z,21.20
2018-04-15T15:26:30.208Z,21.30
2018-04-15T15:28:56.509Z,21.60
2018-04-15T15:31:22.738Z,21.50
2018-04-15T15:33:49.633Z,21.50
2018-04-15T15:36:15.864Z,21.40
2018-04-15T15:38:43.134Z,21.50
2018-04-15T15:41:09.669Z,21.50
2018-04-15T15:43:35.971Z,21.60
2018-04-15T15:46:03.012Z,21.80
2018-04-15T15:48:30.065Z,21.90
2018-04-15T15:50:59.294Z,21.80
2018-04-15T15:53:26.594Z,21.90
2018-04-15T15:55:52.827Z,22.00
2018-04-15T15:58:23.744Z,21.80
2018-04-15T16:00:49.988Z,21.90
2018-04-15T16:03:18.655Z,21.90
2018-04-15T16:05:48.781Z,21.70
2018-04-15T16:08:27.979Z,21.70
2018-04-15T16:10:54.211Z,21.70
2018-04-15T16:13:20.498Z,21.70
2018-04-15T16:15:47.841Z,21.60
2018-04-15T16:18:14.020Z,21.50
2018-04-15T16:20:43.192Z,21.40
2018-04-15T16:23:09.391Z,21.40
2018-04-15T16:25:35.611Z,21.30
2018-04-15T16:28:06.110Z,21.20
2018-04-15T16:30:32.356Z,21.10
2018-04-15T16:32:58.636Z,20.90
2018-04-15T16:35:24.831Z,20.90
2018-04-15T16:37:51.704Z,20.80
2018-04-15T16:40:18.102Z,20.70
2018-04-15T16:42:44.806Z,20.60
2018-04-15T16:45:13.855Z,20.50
2018-04-15T16:47:40.137Z,20.40
2018-04-15T16:50:07.009Z,20.30
2018-04-15T16:52:33.214Z,20.20
2018-04-15T16:54:59.922Z,20.20
2018-04-15T16:57:26.159Z,20.10
2018-04-15T16:59:52.676Z,20.10
2018-04-15T17:02:26.938Z,20.00
2018-04-15T17:05:00.070Z,19.90
2018-04-15T17:07:29.182Z,19.80
2018-04-15T17:09:56.135Z,19.70
2018-04-15T17:12:22.380Z,19.70
2018-04-15T17:14:49.362Z,19.60
2018-04-15T17:17:17.664Z,19.50
2018-04-15T17:19:48.476Z,19.40
2018-04-15T17:22:15.951Z,19.40
2018-04-15T17:24:46.959Z,19.40
2018-04-15T17:27:14.993Z,19.30
2018-04-15T17:29:41.228Z,19.30
2018-04-15T17:32:07.522Z,19.20
2018-04-15T17:34:38.983Z,19.20
2018-04-15T17:37:05.163Z,19.10
2018-04-15T17:39:31.359Z,19.00
2018-04-15T17:42:06.289Z,19.00
2018-04-15T17:44:32.512Z,19.00
2018-04-15T17:46:58.748Z,18.90
2018-04-15T17:49:25.580Z,18.90
2018-04-15T17:51:52.042Z,18.80
2018-04-15T17:54:19.165Z,18.80
2018-04-15T17:56:45.358Z,18.80
2018-04-15T17:59:11.545Z,18.70
2018-04-15T18:01:37.905Z,18.70
2018-04-15T18:04:05.358Z,18.70
2018-04-15T18:06:31.801Z,18.60
2018-04-15T18:08:58.387Z,18.50
2018-04-15T18:11:24.899Z,18.70
2018-04-15T18:13:52.587Z,18.80
2018-04-15T18:16:29.408Z,18.80
2018-04-15T18:18:55.698Z,18.70
2018-04-15T18:21:22.273Z,18.60
2018-04-15T18:23:48.540Z,18.60
2018-04-15T18:26:17.711Z,18.60
2018-04-15T18:28:43.931Z,18.70
2018-04-15T18:31:14.752Z,18.60
2018-04-15T18:33:41.716Z,18.60
2018-04-15T18:36:08.603Z,18.60
2018-04-15T18:38:42.614Z,18.50
2018-04-15T18:41:10.360Z,18.50
2018-04-15T18:43:36.615Z,18.40
2018-04-15T18:46:03.179Z,18.30
2018-04-15T18:48:29.445Z,18.20
2018-04-15T18:50:55.734Z,18.20
2018-04-15T18:53:23.226Z,18.10
2018-04-15T18:55:49.440Z,18.10
2018-04-15T18:58:18.667Z,18.00
2018-04-15T19:00:46.124Z,18.00
2018-04-15T19:03:12.376Z,17.90
2018-04-15T19:05:38.672Z,17.90
2018-04-15T19:08:04.964Z,17.80
2018-04-15T19:10:31.201Z,17.90
2018-04-15T19:13:10.385Z,17.90
2018-04-15T19:15:37.633Z,17.80
2018-04-15T19:18:04.200Z,17.90
2018-04-15T19:20:31.610Z,17.80
2018-04-15T19:22:58.181Z,17.40
2018-04-15T19:25:24.527Z,17.80
2018-04-15T19:27:51.092Z,17.80
2018-04-15T19:30:18.847Z,17.80
2018-04-15T19:32:47.683Z,17.70
2018-04-15T19:35:14.979Z,17.70
2018-04-15T19:37:43.109Z,17.70
2018-04-15T19:40:10.745Z,17.80
2018-04-15T19:42:37.862Z,17.90
2018-04-15T19:45:04.067Z,17.90
2018-04-15T19:47:30.844Z,18.10
2018-04-15T19:49:57.090Z,18.20
2018-04-15T19:52:23.513Z,18.10
2018-04-15T19:54:53.636Z,18.20
2018-04-15T19:57:20.344Z,18.20
2018-04-15T19:59:46.590Z,18.20
2018-04-15T20:02:12.944Z,18.10
2018-04-15T20:04:40.054Z,18.00
2018-04-15T20:07:06.566Z,18.00
2018-04-15T20:09:32.793Z,18.00
2018-04-15T20:12:01.226Z,17.90
2018-04-15T20:14:27.649Z,17.90
2018-04-15T20:16:54.414Z,17.90
2018-04-15T20:19:26.464Z,17.80
2018-04-15T20:21:52.808Z,17.80
2018-04-15T20:24:19.320Z,17.70
2018-04-15T20:26:45.896Z,17.80
2018-04-15T20:29:12.285Z,17.70
2018-04-15T20:31:43.387Z,17.70
2018-04-15T20:34:16.579Z,17.60
2018-04-15T20:39:19.304Z,17.50
2018-04-15T20:41:45.617Z,17.40
2018-04-15T20:44:14.087Z,17.30
2018-04-15T20:46:43.949Z,17.10
2018-04-15T20:49:15.115Z,16.80
2018-04-15T20:51:41.379Z,16.50
2018-04-15T20:54:07.667Z,16.30
2018-04-15T20:56:34.617Z,16.10
2018-04-15T20:59:00.913Z,16.00
2018-04-15T21:01:27.393Z,15.90
2018-04-15T21:03:54.649Z,15.90
2018-04-15T21:06:21.863Z,15.80
2018-04-15T21:08:48.682Z,15.80
2018-04-15T21:11:14.932Z,15.90
2018-04-15T21:13:41.094Z,15.90
2018-04-15T21:16:07.580Z,15.80
2018-04-15T21:18:33.687Z,15.90
2018-04-15T21:20:59.851Z,16.00
2018-04-15T21:23:25.980Z,16.00
2018-04-15T21:25:52.112Z,15.90
2018-04-15T21:28:18.224Z,16.00
2018-04-15T21:30:45.110Z,15.90
2018-04-15T21:33:11.250Z,15.90
2018-04-15T21:35:37.405Z,15.80
2018-04-15T21:38:03.519Z,15.80
2018-04-15T21:40:29.702Z,15.60
2018-04-15T21:42:55.815Z,15.60
2018-04-15T21:45:22.883Z,15.60
2018-04-15T21:47:49.268Z,15.60
2018-04-15T21:50:16.151Z,15.40
2018-04-15T21:52:42.974Z,15.30
2018-04-15T21:55:09.194Z,15.30
2018-04-15T21:57:35.400Z,15.40
2018-04-15T22:00:02.272Z,15.50
2018-04-15T22:02:28.471Z,15.40
2018-04-15T22:04:55.353Z,15.60
2018-04-15T22:07:22.240Z,15.60
2018-04-15T22:09:48.369Z,15.60
2018-04-15T22:12:14.635Z,15.70
2018-04-15T22:14:40.840Z,15.70
2018-04-15T22:17:06.988Z,15.70
2018-04-15T22:19:33.105Z,15.70
2018-04-15T22:21:59.304Z,15.70
2018-04-15T22:24:26.192Z,15.60
2018-04-15T22:26:52.387Z,15.60
2018-04-15T22:29:19.359Z,15.60
2018-04-15T22:31:45.739Z,15.50
2018-04-15T22:34:11.903Z,15.50
2018-04-15T22:36:38.055Z,15.60
2018-04-15T22:39:04.195Z,15.50
2018-04-15T22:41:30.343Z,15.40
2018-04-15T22:43:57.439Z,15.40
2018-04-15T22:46:23.576Z,15.40
2018-04-15T22:48:55.778Z,15.40
2018-04-15T22:51:21.923Z,15.30
2018-04-15T22:53:48.848Z,15.40
2018-04-15T22:56:15.050Z,15.40
2018-04-15T22:58:46.226Z,15.50
2018-04-15T23:01:12.364Z,15.50
2018-04-15T23:03:38.536Z,15.50
2018-04-15T23:06:04.703Z,15.50
2018-04-15T23:08:30.819Z,15.50
2018-04-15T23:10:56.968Z,15.40
2018-04-15T23:13:23.970Z,15.30
2018-04-15T23:15:50.096Z,15.30
2018-04-15T23:18:16.231Z,15.30
2018-04-15T23:20:42.403Z,15.30
2018-04-15T23:23:08.538Z,15.30
2018-04-15T23:25:34.676Z,15.20
2018-04-15T23:28:00.843Z,15.20
2018-04-15T23:30:27.059Z,15.30
2018-04-15T23:32:53.163Z,15.20
2018-04-15T23:35:19.335Z,15.20
2018-04-15T23:37:45.448Z,15.30
2018-04-15T23:40:11.582Z,15.20
2018-04-15T23:42:37.693Z,15.20
2018-04-15T23:45:03.874Z,15.20
2018-04-15T23:47:29.967Z,15.10
2018-04-15T23:49:56.840Z,15.20
2018-04-15T23:52:23.731Z,15.10
2018-04-15T23:54:49.847Z,15.10
2018-04-15T23:57:15.988Z,15.10
2018-04-15T23:59:42.122Z,15.10
